Time;durP1;ratioP1;P1;durP2;ratioP2;P2;SDS_P1;SDS_P2;PMS_P1;PMS_P2;Temp;Humidity;BMP_temperature;BMP_pressure;BME280_temperature;BME280_humidity;BME280_pressure;Samples;Min_cycle;Max_cycle;Signal;HPM_P1;HPM_P2
2023/04/05 00:01:32;;;;;;;10.38;4.13;;;4.70;99.90;;;;;;5098882;28;20032;-76
2023/04/05 00:03:59;;;;;;;7.32;3.60;;;4.50;99.90;;;;;;5098954;28;20055;-76
2023/04/05 00:06:27;;;;;;;7.70;3.17;;;4.50;99.90;;;;;;5098823;28;20137;-77
2023/04/05 00:08:57;;;;;;;9.38;3.20;;;4.50;99.90;;;;;;5098345;28;20055;-77
2023/04/05 00:11:27;;;;;;;12.45;3.85;;;4.50;99.90;;;;;;5099003;28;20051;-77
2023/04/05 00:13:52;;;;;;;13.50;4.25;;;4.50;99.90;;;;;;5098285;28;20047;-77
2023/04/05 00:16:19;;;;;;;8.23;3.33;;;4.60;99.90;;;;;;5098293;28;20036;-77
2023/04/05 00:18:48;;;;;;;9.80;3.58;;;4.50;99.90;;;;;;5097324;28;20421;-77
2023/04/05 00:21:15;;;;;;;6.18;3.45;;;4.50;99.90;;;;;;5098441;28;20040;-77
2023/04/05 00:23:43;;;;;;;8.65;3.47;;;4.40;99.90;;;;;;5098478;28;20111;-77
2023/04/05 00:26:10;;;;;;;11.27;3.72;;;4.30;99.90;;;;;;5097471;28;20120;-77
2023/04/05 00:28:36;;;;;;;11.90;3.97;;;4.30;99.90;;;;;;5098352;28;20032;-77
2023/04/05 00:31:03;;;;;;;7.72;3.58;;;4.30;99.90;;;;;;5098276;28;20043;-77
2023/04/05 00:33:29;;;;;;;9.18;3.22;;;4.30;99.90;;;;;;5098248;28;20064;-77
2023/04/05 00:35:55;;;;;;;11.63;3.45;;;4.30;99.90;;;;;;5098144;28;20412;-77
2023/04/05 00:38:20;;;;;;;9.20;3.05;;;4.40;99.90;;;;;;5097817;28;20072;-77
2023/04/05 00:40:46;;;;;;;9.50;3.42;;;4.40;99.90;;;;;;5098119;28;20050;-77
2023/04/05 00:43:12;;;;;;;8.25;4.00;;;4.50;99.90;;;;;;5098055;28;20069;-77
2023/04/05 00:45:37;;;;;;;11.70;4.60;;;4.50;99.90;;;;;;5097721;28;20119;-77
2023/04/05 00:48:04;;;;;;;11.48;5.22;;;4.30;99.90;;;;;;5097730;28;20054;-77
2023/04/05 00:50:30;;;;;;;14.20;5.05;;;4.40;99.90;;;;;;5096887;28;20433;-76
2023/04/05 00:52:57;;;;;;;11.50;5.15;;;4.40;99.90;;;;;;5097670;28;20074;-76
2023/04/05 00:55:24;;;;;;;18.48;6.28;;;4.30;99.90;;;;;;5097313;28;20109;-76
2023/04/05 00:57:49;;;;;;;11.45;5.50;;;4.20;99.90;;;;;;5097814;28;20040;-77
2023/04/05 01:00:16;;;;;;;11.35;5.28;;;4.20;99.90;;;;;;5097773;28;20040;-77
2023/04/05 01:02:50;;;;;;;13.77;5.43;;;4.20;99.90;;;;;;5097727;28;20035;-77
2023/04/05 01:05:41;;;;;;;14.15;5.82;;;4.20;99.90;;;;;;5097685;28;20040;-77
2023/04/05 01:08:39;;;;;;;12.07;5.32;;;4.30;99.90;;;;;;5097231;28;20070;-77
2023/04/05 01:11:07;;;;;;;11.73;5.32;;;4.40;99.90;;;;;;5097586;28;20040;-77
2023/04/05 01:13:32;;;;;;;10.35;4.57;;;4.30;99.90;;;;;;5097572;28;20114;-77
2023/04/05 01:15:58;;;;;;;12.68;4.95;;;4.30;99.90;;;;;;5096130;28;20398;-77
2023/04/05 01:18:25;;;;;;;12.07;4.80;;;4.30;99.90;;;;;;5097460;28;20123;-77
2023/04/05 01:21:19;;;;;;;10.13;4.50;;;4.30;99.90;;;;;;5097390;28;20040;-77
2023/04/05 01:24:15;;;;;;;7.40;3.78;;;4.30;99.90;;;;;;5097304;28;20047;-77
2023/04/05 01:26:51;;;;;;;8.57;4.15;;;4.20;99.90;;;;;;5097363;28;20079;-77
2023/04/05 01:29:41;;;;;;;10.60;4.00;;;4.20;99.90;;;;;;5097126;28;20040;-77
2023/04/05 01:32:12;;;;;;;8.32;3.80;;;4.20;99.90;;;;;;5097281;28;20042;-76
2023/04/05 01:35:05;;;;;;;10.65;4.32;;;4.30;99.90;;;;;;5097129;28;20122;-75
2023/04/05 01:37:34;;;;;;;8.60;4.20;;;4.30;99.90;;;;;;5096791;28;20032;-77
2023/04/05 01:40:00;;;;;;;13.32;4.65;;;4.30;99.90;;;;;;5097101;28;20164;-75
2023/04/05 01:42:26;;;;;;;12.13;4.30;;;4.30;99.90;;;;;;5097090;28;20040;-75
2023/04/05 01:44:53;;;;;;;7.88;3.88;;;4.30;99.90;;;;;;5097073;28;20036;-75
2023/04/05 01:47:19;;;;;;;10.10;4.32;;;4.30;99.90;;;;;;5097038;28;20322;-76
2023/04/05 01:49:45;;;;;;;8.43;4.32;;;4.10;99.90;;;;;;5096937;28;20048;-75
2023/04/05 01:52:11;;;;;;;10.15;4.47;;;4.00;99.90;;;;;;5096664;28;20425;-75
2023/04/05 01:54:37;;;;;;;10.20;4.45;;;3.90;99.90;;;;;;5096469;28;20044;-74
2023/04/05 01:57:03;;;;;;;11.77;4.80;;;4.00;99.90;;;;;;5096991;28;20044;-74
2023/04/05 01:59:29;;;;;;;9.70;4.80;;;3.90;99.90;;;;;;5096896;28;20071;-75
2023/04/05 02:01:55;;;;;;;10.77;4.10;;;3.90;99.90;;;;;;5096591;28;20070;-76
2023/04/05 02:04:20;;;;;;;9.93;4.57;;;3.90;99.90;;;;;;5096643;28;20043;-75
2023/04/05 02:06:46;;;;;;;8.55;4.05;;;3.80;99.90;;;;;;5096833;28;20044;-75
2023/04/05 02:09:12;;;;;;;12.15;4.45;;;3.80;99.90;;;;;;5095189;28;20040;-76
2023/04/05 02:11:37;;;;;;;10.80;4.65;;;3.80;99.90;;;;;;5096493;28;20032;-75
2023/04/05 02:14:03;;;;;;;12.48;4.57;;;3.70;99.90;;;;;;5096655;28;20040;-76
2023/04/05 02:16:31;;;;;;;13.32;5.10;;;3.80;99.90;;;;;;5096480;28;20040;-76
2023/04/05 02:18:58;;;;;;;14.05;4.68;;;3.70;99.90;;;;;;5095440;28;20044;-76
2023/04/05 02:21:24;;;;;;;11.98;4.63;;;3.70;99.90;;;;;;5096501;28;20109;-75
2023/04/05 02:23:51;;;;;;;13.55;5.22;;;3.60;99.90;;;;;;5096443;28;20044;-76
2023/04/05 02:26:16;;;;;;;13.18;4.70;;;3.70;99.90;;;;;;5096383;28;20496;-76
2023/04/05 02:28:42;;;;;;;10.57;4.32;;;3.70;99.90;;;;;;5096392;28;20082;-76
2023/04/05 02:31:12;;;;;;;11.68;5.05;;;3.70;99.90;;;;;;5096641;28;20036;-75
2023/04/05 02:33:39;;;;;;;12.82;5.50;;;3.70;99.90;;;;;;5095897;28;20036;-76
2023/04/05 02:36:06;;;;;;;10.35;4.90;;;3.70;99.90;;;;;;5096626;28;20042;-76
2023/04/05 02:38:33;;;;;;;10.68;4.97;;;3.60;99.90;;;;;;5100149;28;20036;-76
2023/04/05 02:40:58;;;;;;;13.18;5.22;;;3.60;99.90;;;;;;5100475;28;20055;-76
2023/04/05 02:43:24;;;;;;;11.93;5.32;;;3.60;99.90;;;;;;5100284;28;20541;-75
2023/04/05 02:45:50;;;;;;;14.02;5.75;;;3.70;99.90;;;;;;5100358;28;20048;-76
2023/04/05 02:48:16;;;;;;;12.15;5.32;;;3.60;99.90;;;;;;5100293;28;20040;-76
2023/04/05 02:50:47;;;;;;;14.45;5.60;;;3.70;99.90;;;;;;5100297;28;20040;-75
2023/04/05 02:53:13;;;;;;;14.23;5.40;;;3.60;99.90;;;;;;5099971;28;20058;-76
2023/04/05 02:55:41;;;;;;;13.10;4.93;;;3.60;99.90;;;;;;5099647;28;20048;-76
2023/04/05 02:58:07;;;;;;;10.32;4.90;;;3.50;99.90;;;;;;5100146;28;20043;-76
2023/04/05 03:00:33;;;;;;;12.45;5.50;;;3.50;99.90;;;;;;5100102;28;20050;-76
2023/04/05 03:02:59;;;;;;;14.18;6.28;;;3.60;99.90;;;;;;5100057;28;20115;-76
2023/04/05 03:05:25;;;;;;;14.52;5.50;;;3.50;99.90;;;;;;5100004;28;20123;-76
2023/04/05 03:07:51;;;;;;;10.45;4.88;;;3.40;99.90;;;;;;5099197;28;20449;-76
2023/04/05 03:10:21;;;;;;;10.25;5.15;;;3.40;99.90;;;;;;5098945;28;20048;-76
2023/04/05 03:12:47;;;;;;;10.32;5.07;;;3.40;99.90;;;;;;5099860;28;20048;-76
2023/04/05 03:15:13;;;;;;;14.30;6.20;;;3.50;99.90;;;;;;5081592;28;20352;-76
2023/04/05 03:17:42;;;;;;;17.23;5.55;;;3.50;99.90;;;;;;5099808;28;20032;-76
2023/04/05 03:20:09;;;;;;;11.95;5.03;;;3.50;99.90;;;;;;5098655;28;20325;-76
2023/04/05 03:22:35;;;;;;;12.73;5.75;;;3.40;99.90;;;;;;5099694;28;20036;-75
2023/04/05 03:25:01;;;;;;;14.60;6.22;;;3.30;99.90;;;;;;5099644;28;20093;-74
2023/04/05 03:27:28;;;;;;;13.68;5.70;;;3.30;99.90;;;;;;5099580;28;20044;-75
2023/04/05 03:29:54;;;;;;;12.18;5.65;;;3.30;99.90;;;;;;5099544;28;20051;-76
2023/04/05 03:32:19;;;;;;;11.80;5.25;;;3.30;99.90;;;;;;5099178;28;20392;-75
2023/04/05 03:34:45;;;;;;;13.15;6.03;;;3.20;99.90;;;;;;5099412;28;20160;-75
2023/04/05 03:37:11;;;;;;;13.07;5.43;;;3.20;99.90;;;;;;5099490;28;20077;-75
2023/04/05 03:39:37;;;;;;;12.32;5.05;;;3.30;99.90;;;;;;5098905;28;20113;-76
2023/04/05 03:42:02;;;;;;;16.98;5.75;;;3.20;99.90;;;;;;5099421;28;20039;-75
2023/04/05 03:44:29;;;;;;;9.23;5.20;;;3.20;99.90;;;;;;5098978;28;20101;-75
2023/04/05 03:46:54;;;;;;;10.68;5.00;;;3.20;99.90;;;;;;5098986;28;20098;-75
2023/04/05 03:49:20;;;;;;;10.48;4.95;;;3.20;99.90;;;;;;5099058;28;20040;-75
2023/04/05 03:51:46;;;;;;;10.80;5.32;;;3.20;99.90;;;;;;5097787;28;20040;-75
2023/04/05 03:54:12;;;;;;;13.65;6.30;;;3.20;99.90;;;;;;5099017;28;20040;-75
2023/04/05 03:56:38;;;;;;;14.48;5.75;;;3.10;99.90;;;;;;5098525;28;20441;-75
2023/04/05 03:59:03;;;;;;;15.07;5.68;;;3.10;99.90;;;;;;5098990;28;20097;-75
2023/04/05 04:01:30;;;;;;;16.05;5.63;;;3.00;99.90;;;;;;5098133;28;20040;-75
2023/04/05 04:03:55;;;;;;;12.32;5.57;;;2.90;99.90;;;;;;5098939;28;20040;-75
2023/04/05 04:06:25;;;;;;;14.35;6.50;;;2.70;99.90;;;;;;5080979;28;20043;-76
2023/04/05 04:08:51;;;;;;;11.93;5.70;;;2.70;99.90;;;;;;5077742;28;20036;-75
2023/04/05 04:11:16;;;;;;;10.90;5.95;;;2.70;99.90;;;;;;5078429;28;20043;-75
2023/04/05 04:13:42;;;;;;;10.93;5.80;;;2.80;99.90;;;;;;5078418;28;20040;-75
2023/04/05 04:16:08;;;;;;;12.93;5.90;;;3.00;99.90;;;;;;5078333;28;20048;-75
2023/04/05 04:18:33;;;;;;;11.68;5.65;;;3.00;99.90;;;;;;5078057;28;20040;-75
2023/04/05 04:21:05;;;;;;;12.77;5.85;;;3.00;99.90;;;;;;5078262;28;20033;-75
2023/04/05 04:23:33;;;;;;;11.63;5.88;;;3.20;99.90;;;;;;5078262;28;20043;-75
2023/04/05 04:26:00;;;;;;;12.05;5.55;;;3.20;99.90;;;;;;5077185;28;20435;-76
2023/04/05 04:28:26;;;;;;;12.25;5.50;;;3.10;99.90;;;;;;5077892;28;20047;-75
2023/04/05 04:30:52;;;;;;;15.73;6.13;;;3.00;99.90;;;;;;5077810;28;20040;-75
2023/04/05 04:33:18;;;;;;;13.95;5.88;;;2.90;99.90;;;;;;5078024;28;20079;-75
2023/04/05 04:35:45;;;;;;;13.95;6.20;;;2.80;99.90;;;;;;5077858;28;20322;-75
2023/04/05 04:38:19;;;;;;;15.80;6.22;;;2.90;99.90;;;;;;5077508;28;20047;-76
2023/04/05 04:40:45;;;;;;;15.35;6.30;;;2.90;99.90;;;;;;5077958;28;20051;-75
2023/04/05 04:43:25;;;;;;;13.52;6.40;;;2.90;99.90;;;;;;5093459;28;20049;-75
2023/04/05 04:45:53;;;;;;;15.05;6.40;;;2.80;99.90;;;;;;5076512;28;20449;-75
2023/04/05 04:48:19;;;;;;;16.15;6.95;;;3.00;99.90;;;;;;5077752;28;20326;-75
2023/04/05 04:50:47;;;;;;;17.70;7.28;;;3.10;99.90;;;;;;5077379;28;20438;-75
2023/04/05 04:53:16;;;;;;;18.10;7.68;;;3.20;99.90;;;;;;5077640;28;20076;-75
2023/04/05 04:55:41;;;;;;;17.48;7.00;;;3.20;99.90;;;;;;5076022;28;20057;-75
2023/04/05 04:58:09;;;;;;;18.25;8.05;;;3.30;99.90;;;;;;5077478;28;20342;-75
2023/04/05 05:00:38;;;;;;;15.35;7.45;;;3.30;99.90;;;;;;5076801;28;20044;-75
2023/04/05 05:03:05;;;;;;;16.10;7.18;;;3.40;99.90;;;;;;5077450;28;20120;-75
2023/04/05 05:05:30;;;;;;;18.67;7.85;;;3.40;99.90;;;;;;5077182;28;20056;-75
2023/04/05 05:07:56;;;;;;;15.48;7.30;;;3.50;99.90;;;;;;5076630;28;20036;-76
2023/04/05 05:10:21;;;;;;;15.23;7.25;;;3.40;99.90;;;;;;5077282;28;20037;-75
2023/04/05 05:12:47;;;;;;;16.77;8.43;;;3.30;99.90;;;;;;5077260;28;20043;-75
2023/04/05 05:15:13;;;;;;;18.42;7.63;;;3.20;99.90;;;;;;5076882;28;20076;-75
2023/04/05 05:17:39;;;;;;;14.52;7.90;;;3.20;99.90;;;;;;5076891;28;20059;-75
2023/04/05 05:20:09;;;;;;;20.60;8.02;;;3.20;99.90;;;;;;5077160;28;20040;-75
2023/04/05 05:22:36;;;;;;;17.35;8.27;;;3.20;99.90;;;;;;5077393;28;20083;-75
2023/04/05 05:25:04;;;;;;;18.40;9.38;;;3.00;99.90;;;;;;5077124;28;20064;-75
2023/04/05 05:27:30;;;;;;;20.25;7.97;;;2.90;99.90;;;;;;5059123;28;20083;-75
2023/04/05 05:29:55;;;;;;;16.30;8.02;;;3.00;99.90;;;;;;5075684;28;20083;-76
2023/04/05 05:32:22;;;;;;;16.75;7.47;;;3.10;99.90;;;;;;5075756;28;20048;-75
2023/04/05 05:34:48;;;;;;;18.15;8.13;;;3.10;99.90;;;;;;5076909;28;20036;-75
2023/04/05 05:37:13;;;;;;;18.38;8.05;;;3.20;99.90;;;;;;5076696;28;20037;-76
2023/04/05 05:39:39;;;;;;;16.42;7.78;;;3.20;99.90;;;;;;5076514;28;20040;-76
2023/04/05 05:42:05;;;;;;;25.13;8.75;;;3.20;99.90;;;;;;5076846;28;20368;-75
2023/04/05 05:44:31;;;;;;;17.17;8.20;;;3.20;99.90;;;;;;5075852;28;20325;-75
2023/04/05 05:46:57;;;;;;;16.75;8.02;;;3.10;99.90;;;;;;5076803;28;20041;-75
2023/04/05 05:49:24;;;;;;;18.50;8.25;;;3.20;99.90;;;;;;5076565;28;20033;-76
2023/04/05 05:51:51;;;;;;;17.05;9.20;;;3.20;99.90;;;;;;5076826;28;20317;-75
2023/04/05 05:54:17;;;;;;;18.65;8.45;;;3.20;99.90;;;;;;5076682;28;20041;-75
2023/04/05 05:56:43;;;;;;;19.02;8.68;;;3.20;99.90;;;;;;5076332;28;20388;-76
2023/04/05 05:59:09;;;;;;;15.20;7.95;;;3.30;99.90;;;;;;5076737;28;20041;-76
2023/04/05 06:01:41;;;;;;;19.20;8.38;;;3.40;99.90;;;;;;5076402;28;20393;-75
2023/04/05 06:04:07;;;;;;;18.98;8.63;;;3.40;99.90;;;;;;5076386;28;20040;-76
2023/04/05 06:06:34;;;;;;;15.10;8.38;;;3.50;99.90;;;;;;5076658;28;20048;-75
2023/04/05 06:08:59;;;;;;;17.67;9.05;;;3.70;99.90;;;;;;5076210;28;20076;-76
2023/04/05 06:11:25;;;;;;;17.02;9.07;;;3.80;99.90;;;;;;5079030;28;20079;-75
2023/04/05 06:13:53;;;;;;;18.83;9.18;;;3.90;99.90;;;;;;5080344;28;20044;-76
2023/04/05 06:16:20;;;;;;;21.25;9.50;;;4.00;99.90;;;;;;5080671;28;20032;-76
2023/04/05 06:18:46;;;;;;;19.73;10.27;;;4.10;99.90;;;;;;5080379;28;20037;-76
2023/04/05 06:21:12;;;;;;;20.83;10.00;;;4.10;99.90;;;;;;5080590;28;20048;-76
2023/04/05 06:23:40;;;;;;;17.98;9.70;;;4.20;99.90;;;;;;5086701;28;20036;-76
2023/04/05 06:26:06;;;;;;;16.80;9.55;;;4.00;99.90;;;;;;5100693;28;20090;-75
2023/04/05 06:28:32;;;;;;;18.67;10.07;;;4.00;99.90;;;;;;5100705;28;20040;-75
2023/04/05 06:30:58;;;;;;;24.40;11.10;;;4.00;99.90;;;;;;5100655;28;20051;-75
2023/04/05 06:33:24;;;;;;;25.40;11.45;;;4.00;99.90;;;;;;5100663;28;20047;-75
2023/04/05 06:35:50;;;;;;;19.30;10.27;;;3.90;99.90;;;;;;5100493;28;20151;-75
2023/04/05 06:38:16;;;;;;;22.05;10.05;;;4.00;99.90;;;;;;5100069;28;20412;-75
2023/04/05 06:40:41;;;;;;;17.23;9.60;;;4.00;99.90;;;;;;5100450;28;20040;-75
2023/04/05 06:43:09;;;;;;;19.48;10.00;;;4.20;99.90;;;;;;5100427;28;20363;-75
2023/04/05 06:45:35;;;;;;;18.00;9.55;;;4.40;99.90;;;;;;5100397;28;20058;-75
2023/04/05 06:48:01;;;;;;;15.88;9.45;;;4.50;99.90;;;;;;5100351;28;20036;-75
2023/04/05 06:50:27;;;;;;;19.48;10.68;;;4.60;99.90;;;;;;5100368;28;20429;-75
2023/04/05 06:52:52;;;;;;;20.50;10.30;;;4.80;99.90;;;;;;5100338;28;20097;-75
2023/04/05 06:55:18;;;;;;;18.95;9.60;;;4.90;99.90;;;;;;5099864;28;20476;-75
2023/04/05 06:57:44;;;;;;;20.10;9.52;;;5.00;99.90;;;;;;5100207;28;20044;-75
2023/04/05 07:00:12;;;;;;;17.23;9.75;;;5.00;99.90;;;;;;5099510;28;20039;-76
2023/04/05 07:02:38;;;;;;;20.58;9.95;;;5.10;99.90;;;;;;5098697;28;20089;-76
2023/04/05 07:05:04;;;;;;;20.02;10.30;;;5.30;99.90;;;;;;5099034;28;20340;-75
2023/04/05 07:07:38;;;;;;;19.55;9.73;;;5.40;99.90;;;;;;5098262;28;20442;-75
2023/04/05 07:10:05;;;;;;;20.13;10.00;;;5.30;99.90;;;;;;5099984;28;20047;-75
2023/04/05 07:12:31;;;;;;;17.50;9.68;;;5.40;99.90;;;;;;5099575;28;20422;-74
2023/04/05 07:14:58;;;;;;;17.27;9.07;;;5.40;99.90;;;;;;5098791;28;20310;-67
2023/04/05 07:17:24;;;;;;;14.68;9.27;;;5.70;99.90;;;;;;5099737;28;20036;-67
2023/04/05 07:19:50;;;;;;;16.95;9.98;;;5.80;99.90;;;;;;5099396;28;20456;-67
2023/04/05 07:22:16;;;;;;;16.60;9.25;;;5.80;99.90;;;;;;5098846;28;20036;-68
2023/04/05 07:24:43;;;;;;;18.27;10.75;;;5.80;99.90;;;;;;5099525;28;20063;-69
2023/04/05 07:27:09;;;;;;;18.70;9.70;;;5.80;99.90;;;;;;5099577;28;20036;-68
2023/04/05 07:29:39;;;;;;;21.85;9.98;;;5.90;99.90;;;;;;5099229;28;20047;-68
2023/04/05 07:32:06;;;;;;;21.23;10.02;;;6.00;99.90;;;;;;5099482;28;20044;-68
2023/04/05 07:34:32;;;;;;;22.48;10.30;;;6.10;99.90;;;;;;5099066;28;20084;-68
2023/04/05 07:36:58;;;;;;;20.13;9.80;;;6.10;99.90;;;;;;5099143;28;20436;-68
2023/04/05 07:39:24;;;;;;;15.82;9.00;;;6.10;99.90;;;;;;5099062;28;20036;-68
2023/04/05 07:41:50;;;;;;;18.85;9.23;;;6.10;99.90;;;;;;5099309;28;20071;-68
2023/04/05 07:44:16;;;;;;;16.05;9.43;;;6.30;99.90;;;;;;5099281;28;20036;-69
2023/04/05 07:46:43;;;;;;;16.20;9.80;;;6.40;99.90;;;;;;5099240;28;20043;-68
2023/04/05 07:49:10;;;;;;;17.25;9.18;;;6.40;99.90;;;;;;5098224;28;20077;-69
2023/04/05 07:51:37;;;;;;;16.25;9.20;;;6.60;99.90;;;;;;5098856;28;20051;-69
2023/04/05 07:54:04;;;;;;;15.75;9.05;;;6.50;99.90;;;;;;5098768;28;20032;-69
2023/04/05 07:56:30;;;;;;;14.02;9.05;;;6.50;99.90;;;;;;5097811;28;20337;-68
2023/04/05 07:58:57;;;;;;;14.35;8.13;;;6.50;99.90;;;;;;5098669;28;20044;-68
2023/04/05 08:01:26;;;;;;;14.85;8.30;;;6.50;99.90;;;;;;5098716;28;20076;-68
2023/04/05 08:03:52;;;;;;;13.88;7.63;;;6.70;99.90;;;;;;5097945;28;20076;-68
2023/04/05 08:06:18;;;;;;;16.00;8.38;;;6.80;99.90;;;;;;5098868;28;20329;-68
2023/04/05 08:08:45;;;;;;;18.02;8.77;;;6.90;99.90;;;;;;5098430;28;20051;-68
2023/04/05 08:11:11;;;;;;;14.15;7.32;;;7.00;99.90;;;;;;5098698;28;20080;-68
2023/04/05 08:13:40;;;;;;;14.63;8.30;;;7.10;99.90;;;;;;5098327;28;20082;-68
2023/04/05 08:16:07;;;;;;;13.25;7.43;;;7.30;99.90;;;;;;5098220;28;20429;-68
2023/04/05 08:18:32;;;;;;;15.65;8.00;;;7.40;99.90;;;;;;5098582;28;20055;-67
2023/04/05 08:20:58;;;;;;;13.43;7.82;;;7.50;99.90;;;;;;5098506;28;20036;-68
2023/04/05 08:23:24;;;;;;;16.83;7.47;;;7.50;99.90;;;;;;5098453;28;20443;-68
2023/04/05 08:25:50;;;;;;;12.95;6.85;;;7.50;99.90;;;;;;5098126;28;20036;-68
2023/04/05 08:28:16;;;;;;;11.95;6.65;;;7.60;99.90;;;;;;5080440;28;20130;-68
2023/04/05 08:30:41;;;;;;;13.73;7.75;;;7.80;99.90;;;;;;5080243;28;20036;-68
2023/04/05 08:33:07;;;;;;;13.57;7.28;;;7.80;99.90;;;;;;5098229;28;20155;-68
2023/04/05 08:35:35;;;;;;;10.50;6.32;;;7.90;99.90;;;;;;5096162;28;20397;-69
2023/04/05 08:38:01;;;;;;;11.77;6.10;;;8.10;99.90;;;;;;5097942;28;20032;-69
2023/04/05 08:40:43;;;;;;;11.50;6.82;;;8.30;99.90;;;;;;5097217;28;20166;-69
2023/04/05 08:43:36;;;;;;;10.23;5.57;;;8.40;99.90;;;;;;5097830;28;20032;-70
2023/04/05 08:46:06;;;;;;;11.40;5.85;;;8.40;99.90;;;;;;5098048;28;20044;-69
2023/04/05 08:48:34;;;;;;;9.48;5.72;;;8.60;99.90;;;;;;5097988;28;20040;-69
2023/04/05 08:51:00;;;;;;;10.93;5.90;;;8.70;99.90;;;;;;5097986;28;20165;-69
2023/04/05 08:53:27;;;;;;;11.32;5.70;;;8.80;99.90;;;;;;5097670;28;20115;-69
2023/04/05 08:55:59;;;;;;;10.30;6.03;;;8.80;99.90;;;;;;5097581;28;20196;-70
2023/04/05 08:58:25;;;;;;;10.32;5.50;;;8.80;99.90;;;;;;5097838;28;20036;-72
2023/04/05 09:00:51;;;;;;;23.20;5.82;;;8.80;99.90;;;;;;5097932;28;20028;-74
2023/04/05 09:03:21;;;;;;;10.38;5.50;;;8.70;99.90;;;;;;5097799;28;20032;-70
2023/04/05 09:05:51;;;;;;;9.65;4.90;;;8.70;99.90;;;;;;5097731;28;20067;-72
2023/04/05 09:08:18;;;;;;;14.85;5.28;;;8.80;99.90;;;;;;5097296;28;20119;-69
2023/04/05 09:10:44;;;;;;;7.53;4.50;;;8.40;99.90;;;;;;5097612;28;20044;-69
2023/04/05 09:13:09;;;;;;;9.23;4.75;;;8.60;99.90;;;;;;5097558;28;20047;-68
2023/04/05 09:15:36;;;;;;;7.80;4.80;;;8.80;99.90;;;;;;5097428;28;20066;-67
2023/04/05 09:18:02;;;;;;;10.20;5.00;;;8.90;99.90;;;;;;5097781;28;20118;-75
2023/04/05 09:20:28;;;;;;;7.78;4.85;;;8.80;99.90;;;;;;5097774;28;20078;-77
2023/04/05 09:22:55;;;;;;;10.13;4.93;;;8.50;99.90;;;;;;5097768;28;20085;-75
2023/04/05 09:25:38;;;;;;;11.40;5.72;;;8.50;99.90;;;;;;5097671;28;20040;-75
2023/04/05 09:28:11;;;;;;;9.20;5.28;;;8.60;99.90;;;;;;5097621;28;20059;-75
2023/04/05 09:30:37;;;;;;;9.93;4.38;;;8.70;99.90;;;;;;5096285;28;20051;-75
2023/04/05 09:33:06;;;;;;;10.63;4.78;;;8.80;99.90;;;;;;5097559;28;20035;-76
2023/04/05 09:35:32;;;;;;;12.45;5.10;;;9.00;99.90;;;;;;5097553;28;20093;-74
2023/04/05 09:38:03;;;;;;;11.32;5.15;;;8.90;99.90;;;;;;5096850;28;20036;-73
2023/04/05 09:40:44;;;;;;;8.32;5.22;;;8.60;99.90;;;;;;5097372;28;20068;-76
2023/04/05 09:43:33;;;;;;;10.32;5.53;;;8.60;99.90;;;;;;5097466;28;20036;-76
2023/04/05 09:45:59;;;;;;;6.90;3.40;;;8.90;99.90;;;;;;5096489;28;20048;-76
2023/04/05 09:48:46;;;;;;;8.43;4.68;;;9.00;99.90;;;;;;5097423;28;20054;-75
2023/04/05 09:51:17;;;;;;;7.20;4.72;;;9.00;99.90;;;;;;5097308;28;20089;-76
2023/04/05 09:54:07;;;;;;;7.40;4.97;;;9.30;99.90;;;;;;5097245;28;20040;-77
2023/04/05 09:56:39;;;;;;;7.82;4.95;;;9.10;99.90;;;;;;5096963;28;20105;-75
2023/04/05 09:59:10;;;;;;;10.02;4.80;;;9.30;99.90;;;;;;5096968;28;20044;-75
2023/04/05 10:01:37;;;;;;;9.18;3.33;;;9.50;99.90;;;;;;5096748;28;20508;-75
2023/04/05 10:04:03;;;;;;;5.45;3.20;;;9.70;99.90;;;;;;5096864;28;20097;-75
2023/04/05 10:06:39;;;;;;;7.90;3.90;;;9.60;99.90;;;;;;5096073;28;20036;-75
2023/04/05 10:09:06;;;;;;;7.30;3.65;;;9.90;99.90;;;;;;5096524;28;20083;-75
2023/04/05 10:11:33;;;;;;;9.93;3.35;;;10.00;99.90;;;;;;5096598;28;20433;-75
2023/04/05 10:14:07;;;;;;;8.45;3.17;;;10.00;99.90;;;;;;5096902;28;20043;-75
2023/04/05 10:16:56;;;;;;;9.30;3.50;;;9.90;99.90;;;;;;5096995;28;20051;-75
2023/04/05 10:20:08;;;;;;;13.40;4.43;;;9.90;99.90;;;;;;5084730;28;20044;-75
2023/04/05 10:23:04;;;;;;;7.13;3.47;;;10.10;99.90;;;;;;5088179;28;20318;-74
2023/04/05 10:25:33;;;;;;;7.57;3.90;;;10.30;99.90;;;;;;5096863;28;20063;-74
2023/04/05 10:28:11;;;;;;;10.02;3.80;;;10.40;99.90;;;;;;5096702;28;20086;-75
2023/04/05 10:30:45;;;;;;;7.78;4.20;;;10.70;99.90;;;;;;5096726;28;20044;-75
2023/04/05 10:33:23;;;;;;;9.07;4.45;;;10.80;99.90;;;;;;5096973;28;20047;-75
2023/04/05 10:36:08;;;;;;;7.70;3.85;;;10.90;99.90;;;;;;5096629;28;20037;-72
2023/04/05 10:39:01;;;;;;;7.18;3.78;;;10.70;99.90;;;;;;5096511;28;20032;-73
2023/04/05 10:41:42;;;;;;;9.65;4.25;;;10.60;99.90;;;;;;5096302;28;20032;-72
2023/04/05 10:44:10;;;;;;;7.68;3.60;;;10.90;99.90;;;;;;5096274;28;20094;-72
2023/04/05 10:46:38;;;;;;;13.05;4.35;;;11.10;99.90;;;;;;5096474;28;20048;-71
2023/04/05 10:49:21;;;;;;;11.38;4.35;;;11.10;99.90;;;;;;5096446;28;20036;-72
2023/04/05 10:51:47;;;;;;;6.20;3.70;;;11.20;99.90;;;;;;5096492;28;20115;-72
2023/04/05 10:54:16;;;;;;;8.65;4.18;;;11.40;99.90;;;;;;5096318;28;20075;-71
2023/04/05 10:56:42;;;;;;;8.70;4.05;;;11.70;99.90;;;;;;5096028;28;20114;-72
2023/04/05 10:59:12;;;;;;;10.40;4.82;;;11.90;99.90;;;;;;5100091;28;20414;-78
2023/04/05 11:01:39;;;;;;;9.88;4.45;;;12.10;99.90;;;;;;5101091;28;20047;-77
2023/04/05 11:04:15;;;;;;;11.13;4.30;;;12.00;99.90;;;;;;5100578;28;20430;-77
2023/04/05 11:06:50;;;;;;;10.93;4.03;;;12.10;99.90;;;;;;5101728;28;20334;-77
2023/04/05 11:09:20;;;;;;;7.13;3.92;;;11.70;99.90;;;;;;5100842;28;20040;-77
2023/04/05 11:11:47;;;;;;;7.18;4.07;;;11.70;99.90;;;;;;5101010;28;20111;-77
2023/04/05 11:14:45;;;;;;;6.63;3.78;;;11.80;99.90;;;;;;5100903;28;20036;-77
2023/04/05 11:17:25;;;;;;;9.82;3.90;;;11.90;99.90;;;;;;5067213;28;20047;-77
2023/04/05 11:19:56;;;;;;;8.15;4.20;;;12.10;99.90;;;;;;5099669;28;20040;-71
2023/04/05 11:22:29;;;;;;;7.53;4.00;;;12.40;99.90;;;;;;5099867;28;20040;-73
2023/04/05 11:24:57;;;;;;;7.22;3.90;;;12.90;99.90;;;;;;5099765;28;20048;-73
2023/04/05 11:27:29;;;;;;;5.65;3.42;;;13.20;99.90;;;;;;5099657;28;20085;-73
2023/04/05 11:29:56;;;;;;;7.13;3.85;;;13.30;99.90;;;;;;5099379;28;20123;-74
2023/04/05 11:32:23;;;;;;;8.35;3.65;;;13.80;99.90;;;;;;5099947;28;20040;-74
2023/04/05 11:35:06;;;;;;;8.10;4.05;;;13.70;99.90;;;;;;5099479;28;20044;-74
2023/04/05 11:37:59;;;;;;;7.47;3.63;;;13.40;99.90;;;;;;5098428;28;20044;-74
2023/04/05 11:40:36;;;;;;;9.95;3.80;;;13.40;99.90;;;;;;5099119;28;20441;-72
2023/04/05 11:43:04;;;;;;;6.15;3.80;;;13.40;99.90;;;;;;5099348;28;20074;-73
2023/04/05 11:45:31;;;;;;;8.60;3.70;;;13.50;99.90;;;;;;5099326;28;20044;-72
2023/04/05 11:47:58;;;;;;;7.45;3.83;;;13.80;99.90;;;;;;5099198;28;20044;-73
2023/04/05 11:50:25;;;;;;;8.15;4.07;;;14.10;99.90;;;;;;5099549;28;20337;-76
2023/04/05 11:53:11;;;;;;;4.85;3.60;;;14.10;99.90;;;;;;5099222;28;20049;-69
2023/04/05 11:55:42;;;;;;;8.73;4.47;;;13.90;99.90;;;;;;5098524;28;20052;-75
2023/04/05 11:58:27;;;;;;;7.07;3.63;;;14.00;99.90;;;;;;5097932;28;20047;-75
2023/04/05 12:01:01;;;;;;;7.97;3.72;;;14.20;99.90;;;;;;5098927;28;20165;-74
2023/04/05 12:03:27;;;;;;;7.25;4.07;;;14.20;99.90;;;;;;5099028;28;20040;-73
2023/04/05 12:05:54;;;;;;;8.35;4.03;;;13.50;99.90;;;;;;5098996;28;20044;-74
2023/04/05 12:08:21;;;;;;;10.05;4.22;;;13.40;99.90;;;;;;5098189;28;20040;-74
2023/04/05 12:10:54;;;;;;;26.38;4.32;;;13.50;99.90;;;;;;5098518;28;20341;-71
2023/04/05 12:13:31;;;;;;;6.10;3.33;;;13.10;99.90;;;;;;5098785;28;20326;-72
2023/04/05 12:16:01;;;;;;;6.88;3.60;;;13.50;99.90;;;;;;5098306;28;20337;-74
2023/04/05 12:18:29;;;;;;;8.57;3.65;;;13.80;99.90;;;;;;5098411;28;20032;-72
2023/04/05 12:20:56;;;;;;;10.98;3.72;;;14.80;99.90;;;;;;5098616;28;20131;-71
2023/04/05 12:23:22;;;;;;;6.18;3.72;;;15.20;99.90;;;;;;5098561;28;20085;-71
2023/04/05 12:25:49;;;;;;;7.15;3.47;;;15.50;99.90;;;;;;5098508;28;20036;-70
2023/04/05 12:28:15;;;;;;;7.47;3.80;;;15.80;99.90;;;;;;5097389;28;20144;-71
2023/04/05 12:30:47;;;;;;;6.75;3.50;;;16.10;99.90;;;;;;5098116;28;20429;-71
2023/04/05 12:33:13;;;;;;;7.50;3.53;;;16.50;99.90;;;;;;5097989;28;20101;-71
2023/04/05 12:35:39;;;;;;;5.32;3.33;;;16.50;99.90;;;;;;5098234;28;20031;-71
2023/04/05 12:38:05;;;;;;;9.07;3.75;;;16.50;99.90;;;;;;5097782;28;20067;-71
2023/04/05 12:40:34;;;;;;;6.25;3.67;;;16.90;99.90;;;;;;5098240;28;20040;-71
2023/04/05 12:43:05;;;;;;;7.72;3.47;;;17.30;99.90;;;;;;5098161;28;20040;-71
2023/04/05 12:45:38;;;;;;;6.55;3.60;;;17.10;99.90;;;;;;5098098;28;20032;-71
2023/04/05 12:48:27;;;;;;;5.80;3.55;;;17.10;99.90;;;;;;5097815;28;20044;-71
2023/04/05 12:50:53;;;;;;;6.68;3.85;;;17.60;99.90;;;;;;5097333;28;20083;-71
2023/04/05 12:53:27;;;;;;;7.85;3.83;;;17.40;99.90;;;;;;5097673;28;20070;-70
2023/04/05 12:55:57;;;;;;;6.40;3.20;;;17.30;99.90;;;;;;5097952;28;20081;-69
2023/04/05 12:58:35;;;;;;;5.95;3.38;;;17.40;99.90;;;;;;5097849;28;20050;-70